sensor_id;sensor_type;location;lat;lon;timestamp;P1;durP1;ratioP1;P2;durP2;ratioP2
75340;SDS011;64931;47.562;18.920;2023-09-12T00:00:53;8.40;;;5.30;;
75340;SDS011;64931;47.562;18.920;2023-09-12T00:03:19;12.40;;;5.60;;
75340;SDS011;64931;47.562;18.920;2023-09-12T00:05:52;10.10;;;5.30;;
75340;SDS011;64931;47.562;18.920;2023-09-12T00:08:18;9.60;;;5.90;;
75340;SDS011;64931;47.562;18.920;2023-09-12T00:10:44;10.90;;;5.70;;
75340;SDS011;64931;47.562;18.920;2023-09-12T00:13:10;11.00;;;5.70;;
75340;SDS011;64931;47.562;18.920;2023-09-12T00:15:35;11.50;;;5.20;;
75340;SDS011;64931;47.562;18.920;2023-09-12T00:18:00;9.60;;;5.20;;
75340;SDS011;64931;47.562;18.920;2023-09-12T00:20:26;9.70;;;5.30;;
75340;SDS011;64931;47.562;18.920;2023-09-12T00:22:51;8.60;;;5.30;;
75340;SDS011;64931;47.562;18.920;2023-09-12T00:27:45;13.00;;;5.40;;
75340;SDS011;64931;47.562;18.920;2023-09-12T00:30:10;11.40;;;5.60;;
75340;SDS011;64931;47.562;18.920;2023-09-12T00:32:36;9.00;;;5.60;;
75340;SDS011;64931;47.562;18.920;2023-09-12T00:35:01;10.30;;;5.10;;
75340;SDS011;64931;47.562;18.920;2023-09-12T00:37:27;9.10;;;5.70;;
75340;SDS011;64931;47.562;18.920;2023-09-12T00:39:53;12.00;;;5.70;;
75340;SDS011;64931;47.562;18.920;2023-09-12T00:42:18;8.70;;;5.30;;
75340;SDS011;64931;47.562;18.920;2023-09-12T00:44:44;15.10;;;5.70;;
75340;SDS011;64931;47.562;18.920;2023-09-12T00:47:09;10.50;;;5.60;;
75340;SDS011;64931;47.562;18.920;2023-09-12T00:49:36;9.50;;;5.50;;
75340;SDS011;64931;47.562;18.920;2023-09-12T00:52:01;9.50;;;5.20;;
75340;SDS011;64931;47.562;18.920;2023-09-12T00:54:27;8.10;;;5.40;;
75340;SDS011;64931;47.562;18.920;2023-09-12T00:56:53;7.50;;;5.00;;
75340;SDS011;64931;47.562;18.920;2023-09-12T00:59:18;10.00;;;5.40;;
75340;SDS011;64931;47.562;18.920;2023-09-12T01:01:44;8.60;;;5.30;;
75340;SDS011;64931;47.562;18.920;2023-09-12T01:04:10;9.20;;;5.70;;
75340;SDS011;64931;47.562;18.920;2023-09-12T01:06:35;11.10;;;5.60;;
75340;SDS011;64931;47.562;18.920;2023-09-12T01:09:02;8.80;;;6.30;;
75340;SDS011;64931;47.562;18.920;2023-09-12T01:11:28;8.70;;;5.60;;
75340;SDS011;64931;47.562;18.920;2023-09-12T01:13:53;8.60;;;5.40;;
75340;SDS011;64931;47.562;18.920;2023-09-12T01:16:19;10.40;;;5.70;;
75340;SDS011;64931;47.562;18.920;2023-09-12T01:18:44;13.60;;;6.00;;
75340;SDS011;64931;47.562;18.920;2023-09-12T01:29:49;11.20;;;5.50;;
75340;SDS011;64931;47.562;18.920;2023-09-12T01:32:17;12.60;;;5.40;;
75340;SDS011;64931;47.562;18.920;2023-09-12T01:34:43;13.20;;;5.90;;
75340;SDS011;64931;47.562;18.920;2023-09-12T01:37:09;11.10;;;5.50;;
75340;SDS011;64931;47.562;18.920;2023-09-12T01:39:34;10.90;;;6.10;;
75340;SDS011;64931;47.562;18.920;2023-09-12T01:41:59;8.70;;;5.30;;
75340;SDS011;64931;47.562;18.920;2023-09-12T01:44:26;8.40;;;5.40;;
75340;SDS011;64931;47.562;18.920;2023-09-12T01:46:53;12.90;;;6.70;;
75340;SDS011;64931;47.562;18.920;2023-09-12T01:49:20;10.10;;;6.00;;
75340;SDS011;64931;47.562;18.920;2023-09-12T01:51:48;11.70;;;5.90;;
75340;SDS011;64931;47.562;18.920;2023-09-12T01:54:14;8.20;;;5.50;;
75340;SDS011;64931;47.562;18.920;2023-09-12T01:56:40;11.70;;;5.80;;
75340;SDS011;64931;47.562;18.920;2023-09-12T01:59:06;10.80;;;5.90;;
75340;SDS011;64931;47.562;18.920;2023-09-12T02:01:31;13.90;;;5.90;;
75340;SDS011;64931;47.562;18.920;2023-09-12T02:03:57;12.30;;;5.80;;
75340;SDS011;64931;47.562;18.920;2023-09-12T02:06:22;8.70;;;5.50;;
75340;SDS011;64931;47.562;18.920;2023-09-12T02:08:48;11.80;;;5.90;;
75340;SDS011;64931;47.562;18.920;2023-09-12T02:11:14;11.80;;;6.20;;
75340;SDS011;64931;47.562;18.920;2023-09-12T02:13:39;9.60;;;5.70;;
75340;SDS011;64931;47.562;18.920;2023-09-12T02:16:05;10.60;;;6.20;;
75340;SDS011;64931;47.562;18.920;2023-09-12T02:18:30;10.00;;;5.80;;
75340;SDS011;64931;47.562;18.920;2023-09-12T02:20:56;11.90;;;5.60;;
75340;SDS011;64931;47.562;18.920;2023-09-12T02:23:23;10.50;;;6.20;;
75340;SDS011;64931;47.562;18.920;2023-09-12T02:25:49;10.00;;;5.80;;
75340;SDS011;64931;47.562;18.920;2023-09-12T02:28:14;11.10;;;6.00;;
75340;SDS011;64931;47.562;18.920;2023-09-12T02:30:39;8.40;;;5.80;;
75340;SDS011;64931;47.562;18.920;2023-09-12T02:33:08;13.10;;;6.50;;
75340;SDS011;64931;47.562;18.920;2023-09-12T02:35:33;11.20;;;6.30;;
75340;SDS011;64931;47.562;18.920;2023-09-12T02:37:59;12.50;;;6.20;;
75340;SDS011;64931;47.562;18.920;2023-09-12T02:40:24;13.50;;;7.10;;
75340;SDS011;64931;47.562;18.920;2023-09-12T02:42:50;9.10;;;5.80;;
75340;SDS011;64931;47.562;18.920;2023-09-12T02:45:16;9.40;;;6.00;;
75340;SDS011;64931;47.562;18.920;2023-09-12T02:47:41;9.60;;;6.10;;
75340;SDS011;64931;47.562;18.920;2023-09-12T02:50:08;9.70;;;5.50;;
75340;SDS011;64931;47.562;18.920;2023-09-12T02:52:34;11.60;;;6.50;;
75340;SDS011;64931;47.562;18.920;2023-09-12T02:55:00;13.60;;;5.80;;
75340;SDS011;64931;47.562;18.920;2023-09-12T02:57:25;11.20;;;5.90;;
75340;SDS011;64931;47.562;18.920;2023-09-12T02:59:50;10.90;;;5.80;;
75340;SDS011;64931;47.562;18.920;2023-09-12T03:02:16;12.70;;;5.30;;
75340;SDS011;64931;47.562;18.920;2023-09-12T03:04:41;9.50;;;5.70;;
75340;SDS011;64931;47.562;18.920;2023-09-12T03:07:07;12.80;;;6.10;;
75340;SDS011;64931;47.562;18.920;2023-09-12T03:09:32;13.50;;;6.00;;
75340;SDS011;64931;47.562;18.920;2023-09-12T03:11:57;16.80;;;5.80;;
75340;SDS011;64931;47.562;18.920;2023-09-12T03:14:23;9.90;;;5.90;;
75340;SDS011;64931;47.562;18.920;2023-09-12T03:16:48;9.80;;;5.80;;
75340;SDS011;64931;47.562;18.920;2023-09-12T03:19:13;9.20;;;5.60;;
75340;SDS011;64931;47.562;18.920;2023-09-12T03:21:39;7.70;;;5.00;;
75340;SDS011;64931;47.562;18.920;2023-09-12T03:24:05;9.60;;;6.00;;
75340;SDS011;64931;47.562;18.920;2023-09-12T03:26:30;8.20;;;5.50;;
75340;SDS011;64931;47.562;18.920;2023-09-12T03:28:59;13.00;;;6.30;;
75340;SDS011;64931;47.562;18.920;2023-09-12T03:31:24;8.40;;;5.70;;
75340;SDS011;64931;47.562;18.920;2023-09-12T03:33:50;9.40;;;5.90;;
75340;SDS011;64931;47.562;18.920;2023-09-12T03:36:16;13.70;;;6.00;;
75340;SDS011;64931;47.562;18.920;2023-09-12T03:38:42;16.80;;;5.80;;
75340;SDS011;64931;47.562;18.920;2023-09-12T03:41:08;14.90;;;6.10;;
75340;SDS011;64931;47.562;18.920;2023-09-12T03:43:33;11.20;;;6.10;;
75340;SDS011;64931;47.562;18.920;2023-09-12T03:45:59;8.60;;;6.00;;
75340;SDS011;64931;47.562;18.920;2023-09-12T03:48:25;12.50;;;6.00;;
75340;SDS011;64931;47.562;18.920;2023-09-12T03:50:50;10.40;;;5.80;;
75340;SDS011;64931;47.562;18.920;2023-09-12T03:53:16;10.20;;;5.80;;
75340;SDS011;64931;47.562;18.920;2023-09-12T03:55:42;10.10;;;5.90;;
75340;SDS011;64931;47.562;18.920;2023-09-12T03:58:08;10.80;;;5.80;;
75340;SDS011;64931;47.562;18.920;2023-09-12T04:00:33;9.10;;;6.00;;
75340;SDS011;64931;47.562;18.920;2023-09-12T04:02:59;10.00;;;6.00;;
75340;SDS011;64931;47.562;18.920;2023-09-12T04:05:25;8.90;;;5.90;;
75340;SDS011;64931;47.562;18.920;2023-09-12T04:07:50;9.30;;;5.80;;
75340;SDS011;64931;47.562;18.920;2023-09-12T04:10:17;12.60;;;6.10;;
75340;SDS011;64931;47.562;18.920;2023-09-12T04:12:43;9.50;;;6.00;;
75340;SDS011;64931;47.562;18.920;2023-09-12T04:15:09;10.30;;;6.00;;
75340;SDS011;64931;47.562;18.920;2023-09-12T04:17:34;10.30;;;6.20;;
75340;SDS011;64931;47.562;18.920;2023-09-12T04:20:00;10.40;;;6.30;;
75340;SDS011;64931;47.562;18.920;2023-09-12T04:22:25;10.20;;;6.90;;
75340;SDS011;64931;47.562;18.920;2023-09-12T04:24:50;12.00;;;6.30;;
75340;SDS011;64931;47.562;18.920;2023-09-12T04:27:16;10.40;;;5.60;;
75340;SDS011;64931;47.562;18.920;2023-09-12T04:29:41;11.60;;;6.60;;
75340;SDS011;64931;47.562;18.920;2023-09-12T04:32:07;13.30;;;6.10;;
75340;SDS011;64931;47.562;18.920;2023-09-12T04:34:32;10.70;;;6.00;;
75340;SDS011;64931;47.562;18.920;2023-09-12T04:36:57;10.00;;;5.70;;
75340;SDS011;64931;47.562;18.920;2023-09-12T04:39:23;10.50;;;6.30;;
75340;SDS011;64931;47.562;18.920;2023-09-12T04:41:48;10.30;;;5.90;;
75340;SDS011;64931;47.562;18.920;2023-09-12T04:44:14;9.90;;;6.20;;
75340;SDS011;64931;47.562;18.920;2023-09-12T04:46:39;15.50;;;6.30;;
75340;SDS011;64931;47.562;18.920;2023-09-12T04:49:05;10.40;;;6.20;;
75340;SDS011;64931;47.562;18.920;2023-09-12T04:51:30;8.50;;;6.40;;
75340;SDS011;64931;47.562;18.920;2023-09-12T04:53:55;9.30;;;6.30;;
75340;SDS011;64931;47.562;18.920;2023-09-12T04:56:21;12.20;;;6.20;;
75340;SDS011;64931;47.562;18.920;2023-09-12T04:58:49;11.00;;;6.40;;
75340;SDS011;64931;47.562;18.920;2023-09-12T05:01:15;10.10;;;7.20;;
75340;SDS011;64931;47.562;18.920;2023-09-12T05:03:41;10.40;;;6.30;;
75340;SDS011;64931;47.562;18.920;2023-09-12T05:06:06;13.20;;;6.90;;
75340;SDS011;64931;47.562;18.920;2023-09-12T05:08:32;11.00;;;6.10;;
75340;SDS011;64931;47.562;18.920;2023-09-12T05:11:16;10.70;;;6.70;;
75340;SDS011;64931;47.562;18.920;2023-09-12T05:13:42;14.30;;;7.20;;
75340;SDS011;64931;47.562;18.920;2023-09-12T05:16:07;12.60;;;7.00;;
75340;SDS011;64931;47.562;18.920;2023-09-12T05:18:33;11.50;;;7.00;;
75340;SDS011;64931;47.562;18.920;2023-09-12T05:20:58;13.20;;;6.90;;
75340;SDS011;64931;47.562;18.920;2023-09-12T05:23:24;9.70;;;6.40;;
75340;SDS011;64931;47.562;18.920;2023-09-12T05:25:49;10.50;;;6.70;;
75340;SDS011;64931;47.562;18.920;2023-09-12T05:28:15;12.30;;;6.90;;
75340;SDS011;64931;47.562;18.920;2023-09-12T05:30:44;13.50;;;7.10;;
75340;SDS011;64931;47.562;18.920;2023-09-12T05:33:09;11.10;;;7.00;;
75340;SDS011;64931;47.562;18.920;2023-09-12T05:35:34;8.90;;;6.10;;
75340;SDS011;64931;47.562;18.920;2023-09-12T05:38:00;14.00;;;6.80;;
75340;SDS011;64931;47.562;18.920;2023-09-12T05:40:25;8.90;;;6.20;;
75340;SDS011;64931;47.562;18.920;2023-09-12T05:42:50;10.80;;;6.30;;
75340;SDS011;64931;47.562;18.920;2023-09-12T05:45:16;10.30;;;5.90;;
75340;SDS011;64931;47.562;18.920;2023-09-12T05:47:41;11.50;;;6.20;;
75340;SDS011;64931;47.562;18.920;2023-09-12T05:50:07;11.10;;;5.80;;
75340;SDS011;64931;47.562;18.920;2023-09-12T05:52:32;10.70;;;6.20;;
75340;SDS011;64931;47.562;18.920;2023-09-12T05:54:58;11.60;;;6.10;;
75340;SDS011;64931;47.562;18.920;2023-09-12T05:57:23;11.00;;;6.70;;
75340;SDS011;64931;47.562;18.920;2023-09-12T05:59:49;12.80;;;6.50;;
75340;SDS011;64931;47.562;18.920;2023-09-12T06:02:15;11.60;;;6.60;;
75340;SDS011;64931;47.562;18.920;2023-09-12T06:04:40;10.40;;;6.30;;
75340;SDS011;64931;47.562;18.920;2023-09-12T06:07:06;10.50;;;6.60;;
75340;SDS011;64931;47.562;18.920;2023-09-12T06:09:31;12.60;;;6.40;;
75340;SDS011;64931;47.562;18.920;2023-09-12T06:11:56;15.40;;;6.90;;
75340;SDS011;64931;47.562;18.920;2023-09-12T06:14:22;14.40;;;6.20;;
75340;SDS011;64931;47.562;18.920;2023-09-12T06:16:47;9.60;;;6.00;;
75340;SDS011;64931;47.562;18.920;2023-09-12T06:19:13;9.40;;;5.70;;
75340;SDS011;64931;47.562;18.920;2023-09-12T06:21:40;10.70;;;5.90;;
75340;SDS011;64931;47.562;18.920;2023-09-12T06:24:08;12.10;;;6.40;;
75340;SDS011;64931;47.562;18.920;2023-09-12T06:26:38;12.40;;;6.00;;
75340;SDS011;64931;47.562;18.920;2023-09-12T06:29:04;11.90;;;6.00;;
75340;SDS011;64931;47.562;18.920;2023-09-12T06:31:29;11.10;;;5.60;;
75340;SDS011;64931;47.562;18.920;2023-09-12T06:33:55;12.00;;;5.30;;
75340;SDS011;64931;47.562;18.920;2023-09-12T06:36:21;8.20;;;5.60;;
75340;SDS011;64931;47.562;18.920;2023-09-12T06:38:47;11.50;;;5.50;;
75340;SDS011;64931;47.562;18.920;2023-09-12T06:41:13;10.80;;;5.50;;
75340;SDS011;64931;47.562;18.920;2023-09-12T06:43:38;12.20;;;5.60;;
75340;SDS011;64931;47.562;18.920;2023-09-12T06:46:03;12.50;;;5.80;;
75340;SDS011;64931;47.562;18.920;2023-09-12T06:48:29;11.60;;;5.60;;
75340;SDS011;64931;47.562;18.920;2023-09-12T06:50:54;13.40;;;5.30;;
75340;SDS011;64931;47.562;18.920;2023-09-12T06:53:20;12.80;;;6.10;;
75340;SDS011;64931;47.562;18.920;2023-09-12T06:55:45;8.40;;;5.90;;
75340;SDS011;64931;47.562;18.920;2023-09-12T06:58:10;11.10;;;6.00;;
75340;SDS011;64931;47.562;18.920;2023-09-12T07:00:37;10.70;;;6.00;;
75340;SDS011;64931;47.562;18.920;2023-09-12T07:03:02;10.20;;;5.90;;
75340;SDS011;64931;47.562;18.920;2023-09-12T07:05:28;10.70;;;5.90;;
75340;SDS011;64931;47.562;18.920;2023-09-12T07:07:54;9.00;;;5.40;;
75340;SDS011;64931;47.562;18.920;2023-09-12T07:10:19;10.80;;;5.70;;
75340;SDS011;64931;47.562;18.920;2023-09-12T07:12:44;9.90;;;5.50;;
75340;SDS011;64931;47.562;18.920;2023-09-12T07:15:10;11.00;;;5.20;;
75340;SDS011;64931;47.562;18.920;2023-09-12T07:17:35;7.40;;;5.40;;
75340;SDS011;64931;47.562;18.920;2023-09-12T07:20:01;11.00;;;5.60;;
75340;SDS011;64931;47.562;18.920;2023-09-12T07:22:26;9.10;;;5.70;;
75340;SDS011;64931;47.562;18.920;2023-09-12T07:24:51;11.30;;;5.50;;
75340;SDS011;64931;47.562;18.920;2023-09-12T07:27:17;13.40;;;5.40;;
75340;SDS011;64931;47.562;18.920;2023-09-12T07:29:42;12.80;;;5.40;;
75340;SDS011;64931;47.562;18.920;2023-09-12T07:32:08;12.20;;;5.10;;
75340;SDS011;64931;47.562;18.920;2023-09-12T07:34:33;7.80;;;4.90;;
75340;SDS011;64931;47.562;18.920;2023-09-12T07:36:58;9.00;;;5.00;;
75340;SDS011;64931;47.562;18.920;2023-09-12T07:39:24;9.00;;;4.60;;
75340;SDS011;64931;47.562;18.920;2023-09-12T07:41:49;8.80;;;4.90;;
75340;SDS011;64931;47.562;18.920;2023-09-12T07:44:15;8.40;;;4.70;;
75340;SDS011;64931;47.562;18.920;2023-09-12T07:46:42;9.20;;;4.90;;
75340;SDS011;64931;47.562;18.920;2023-09-12T07:49:08;8.90;;;4.40;;
75340;SDS011;64931;47.562;18.920;2023-09-12T07:51:34;7.50;;;4.40;;
75340;SDS011;64931;47.562;18.920;2023-09-12T07:54:00;7.70;;;4.40;;
75340;SDS011;64931;47.562;18.920;2023-09-12T07:56:26;8.40;;;4.50;;
75340;SDS011;64931;47.562;18.920;2023-09-12T07:58:51;8.20;;;4.50;;
75340;SDS011;64931;47.562;18.920;2023-09-12T08:01:17;7.70;;;4.30;;
75340;SDS011;64931;47.562;18.920;2023-09-12T08:03:42;10.70;;;5.10;;
75340;SDS011;64931;47.562;18.920;2023-09-12T08:06:08;9.40;;;4.60;;
75340;SDS011;64931;47.562;18.920;2023-09-12T08:08:34;8.50;;;4.90;;
75340;SDS011;64931;47.562;18.920;2023-09-12T08:10:59;8.20;;;4.20;;
75340;SDS011;64931;47.562;18.920;2023-09-12T08:13:28;10.10;;;4.70;;
75340;SDS011;64931;47.562;18.920;2023-09-12T08:15:55;7.80;;;4.90;;
75340;SDS011;64931;47.562;18.920;2023-09-12T08:18:21;12.30;;;4.90;;
75340;SDS011;64931;47.562;18.920;2023-09-12T08:20:46;8.00;;;4.60;;
75340;SDS011;64931;47.562;18.920;2023-09-12T08:23:12;7.20;;;4.70;;
75340;SDS011;64931;47.562;18.920;2023-09-12T08:25:37;10.90;;;5.10;;
75340;SDS011;64931;47.562;18.920;2023-09-12T08:28:04;9.80;;;4.60;;
75340;SDS011;64931;47.562;18.920;2023-09-12T08:30:30;8.50;;;4.50;;
75340;SDS011;64931;47.562;18.920;2023-09-12T08:32:55;7.20;;;4.60;;
75340;SDS011;64931;47.562;18.920;2023-09-12T08:35:21;6.20;;;3.90;;
75340;SDS011;64931;47.562;18.920;2023-09-12T08:37:46;8.50;;;4.40;;
75340;SDS011;64931;47.562;18.920;2023-09-12T08:40:13;6.30;;;4.30;;
75340;SDS011;64931;47.562;18.920;2023-09-12T08:42:42;8.60;;;4.50;;
75340;SDS011;64931;47.562;18.920;2023-09-12T08:45:15;7.60;;;4.40;;
75340;SDS011;64931;47.562;18.920;2023-09-12T08:47:45;7.40;;;4.40;;
75340;SDS011;64931;47.562;18.920;2023-09-12T08:50:15;7.60;;;4.20;;
75340;SDS011;64931;47.562;18.920;2023-09-12T08:52:45;6.60;;;3.90;;
75340;SDS011;64931;47.562;18.920;2023-09-12T08:55:11;6.70;;;3.90;;
75340;SDS011;64931;47.562;18.920;2023-09-12T08:57:43;9.30;;;4.30;;
75340;SDS011;64931;47.562;18.920;2023-09-12T09:00:10;10.20;;;3.90;;
75340;SDS011;64931;47.562;18.920;2023-09-12T09:02:42;7.10;;;4.10;;
75340;SDS011;64931;47.562;18.920;2023-09-12T09:05:09;8.40;;;4.20;;
75340;SDS011;64931;47.562;18.920;2023-09-12T09:07:36;9.40;;;4.50;;
75340;SDS011;64931;47.562;18.920;2023-09-12T09:12:31;7.30;;;4.10;;
75340;SDS011;64931;47.562;18.920;2023-09-12T09:14:57;8.70;;;4.50;;
75340;SDS011;64931;47.562;18.920;2023-09-12T09:17:23;7.70;;;4.30;;
75340;SDS011;64931;47.562;18.920;2023-09-12T09:19:48;10.50;;;4.40;;
75340;SDS011;64931;47.562;18.920;2023-09-12T09:22:14;7.10;;;4.20;;
75340;SDS011;64931;47.562;18.920;2023-09-12T09:24:39;7.20;;;4.30;;
75340;SDS011;64931;47.562;18.920;2023-09-12T09:27:05;11.10;;;4.10;;
75340;SDS011;64931;47.562;18.920;2023-09-12T09:29:30;9.60;;;4.20;;
75340;SDS011;64931;47.562;18.920;2023-09-12T09:32:01;7.90;;;4.00;;
75340;SDS011;64931;47.562;18.920;2023-09-12T09:34:30;9.10;;;4.60;;
75340;SDS011;64931;47.562;18.920;2023-09-12T09:36:57;8.10;;;4.30;;
75340;SDS011;64931;47.562;18.920;2023-09-12T09:39:26;10.70;;;4.50;;
75340;SDS011;64931;47.562;18.920;2023-09-12T09:41:56;7.00;;;4.20;;
75340;SDS011;64931;47.562;18.920;2023-09-12T09:44:22;6.30;;;4.20;;
75340;SDS011;64931;47.562;18.920;2023-09-12T09:46:52;8.60;;;4.70;;
75340;SDS011;64931;47.562;18.920;2023-09-12T09:49:20;7.10;;;4.50;;
75340;SDS011;64931;47.562;18.920;2023-09-12T09:51:46;9.10;;;4.50;;
75340;SDS011;64931;47.562;18.920;2023-09-12T09:54:12;9.70;;;4.90;;
75340;SDS011;64931;47.562;18.920;2023-09-12T09:56:48;8.80;;;4.60;;
75340;SDS011;64931;47.562;18.920;2023-09-12T09:59:18;7.30;;;4.50;;
75340;SDS011;64931;47.562;18.920;2023-09-12T10:01:47;8.50;;;4.80;;
75340;SDS011;64931;47.562;18.920;2023-09-12T10:04:14;12.80;;;4.80;;
75340;SDS011;64931;47.562;18.920;2023-09-12T10:06:39;10.90;;;4.70;;
75340;SDS011;64931;47.562;18.920;2023-09-12T10:09:09;11.00;;;4.90;;
75340;SDS011;64931;47.562;18.920;2023-09-12T10:14:03;13.10;;;5.30;;
75340;SDS011;64931;47.562;18.920;2023-09-12T10:16:32;13.50;;;5.30;;
75340;SDS011;64931;47.562;18.920;2023-09-12T10:24:32;11.20;;;5.00;;
75340;SDS011;64931;47.562;18.920;2023-09-12T10:26:58;8.40;;;5.00;;
75340;SDS011;64931;47.562;18.920;2023-09-12T10:29:25;10.40;;;5.30;;
75340;SDS011;64931;47.562;18.920;2023-09-12T10:31:50;10.70;;;4.90;;
75340;SDS011;64931;47.562;18.920;2023-09-12T10:34:16;9.80;;;5.10;;
75340;SDS011;64931;47.562;18.920;2023-09-12T10:36:42;10.20;;;4.70;;
75340;SDS011;64931;47.562;18.920;2023-09-12T10:39:09;11.60;;;5.40;;
75340;SDS011;64931;47.562;18.920;2023-09-12T10:41:37;8.50;;;5.20;;
75340;SDS011;64931;47.562;18.920;2023-09-12T10:44:24;9.70;;;5.10;;
75340;SDS011;64931;47.562;18.920;2023-09-12T10:46:49;10.60;;;5.80;;
75340;SDS011;64931;47.562;18.920;2023-09-12T10:49:14;11.10;;;5.70;;
75340;SDS011;64931;47.562;18.920;2023-09-12T10:51:41;10.50;;;5.00;;
75340;SDS011;64931;47.562;18.920;2023-09-12T10:54:07;8.80;;;5.40;;
75340;SDS011;64931;47.562;18.920;2023-09-12T10:56:33;11.50;;;5.10;;
75340;SDS011;64931;47.562;18.920;2023-09-12T11:01:38;11.10;;;5.20;;
75340;SDS011;64931;47.562;18.920;2023-09-12T11:06:46;11.10;;;5.20;;
75340;SDS011;64931;47.562;18.920;2023-09-12T11:09:25;8.40;;;5.50;;
75340;SDS011;64931;47.562;18.920;2023-09-12T11:11:55;11.60;;;5.30;;
75340;SDS011;64931;47.562;18.920;2023-09-12T11:14:23;13.10;;;5.10;;
75340;SDS011;64931;47.562;18.920;2023-09-12T11:19:46;9.30;;;5.30;;
75340;SDS011;64931;47.562;18.920;2023-09-12T11:22:26;13.80;;;5.60;;
75340;SDS011;64931;47.562;18.920;2023-09-12T11:25:02;9.30;;;4.90;;
75340;SDS011;64931;47.562;18.920;2023-09-12T11:27:32;11.50;;;5.50;;
75340;SDS011;64931;47.562;18.920;2023-09-12T11:30:09;15.80;;;5.10;;
75340;SDS011;64931;47.562;18.920;2023-09-12T11:32:35;13.00;;;5.80;;
75340;SDS011;64931;47.562;18.920;2023-09-12T11:35:08;9.00;;;5.10;;
75340;SDS011;64931;47.562;18.920;2023-09-12T11:37:33;10.90;;;5.30;;
75340;SDS011;64931;47.562;18.920;2023-09-12T11:40:02;13.10;;;5.70;;
75340;SDS011;64931;47.562;18.920;2023-09-12T11:42:41;11.50;;;5.60;;
75340;SDS011;64931;47.562;18.920;2023-09-12T11:45:08;14.80;;;5.50;;
75340;SDS011;64931;47.562;18.920;2023-09-12T11:47:39;11.60;;;5.50;;
75340;SDS011;64931;47.562;18.920;2023-09-12T11:50:08;10.10;;;5.00;;
75340;SDS011;64931;47.562;18.920;2023-09-12T11:52:50;10.90;;;5.50;;
75340;SDS011;64931;47.562;18.920;2023-09-12T11:55:30;8.90;;;5.30;;
75340;SDS011;64931;47.562;18.920;2023-09-12T12:00:22;9.00;;;5.10;;
75340;SDS011;64931;47.562;18.920;2023-09-12T12:02:51;16.90;;;5.50;;
75340;SDS011;64931;47.562;18.920;2023-09-12T12:05:18;10.00;;;5.80;;
75340;SDS011;64931;47.562;18.920;2023-09-12T12:07:43;9.60;;;5.30;;
75340;SDS011;64931;47.562;18.920;2023-09-12T12:10:11;11.50;;;5.00;;
75340;SDS011;64931;47.562;18.920;2023-09-12T12:12:37;10.70;;;5.00;;
75340;SDS011;64931;47.562;18.920;2023-09-12T12:15:02;10.70;;;4.80;;
75340;SDS011;64931;47.562;18.920;2023-09-12T12:17:28;9.80;;;5.00;;
75340;SDS011;64931;47.562;18.920;2023-09-12T12:19:54;11.40;;;5.30;;
75340;SDS011;64931;47.562;18.920;2023-09-12T12:22:20;10.30;;;4.60;;
75340;SDS011;64931;47.562;18.920;2023-09-12T12:24:46;11.30;;;5.40;;
75340;SDS011;64931;47.562;18.920;2023-09-12T12:27:15;10.60;;;4.70;;
75340;SDS011;64931;47.562;18.920;2023-09-12T12:29:41;12.90;;;5.10;;
75340;SDS011;64931;47.562;18.920;2023-09-12T12:32:09;11.10;;;5.00;;
75340;SDS011;64931;47.562;18.920;2023-09-12T12:34:35;13.90;;;4.90;;
75340;SDS011;64931;47.562;18.920;2023-09-12T12:37:01;10.40;;;5.10;;
75340;SDS011;64931;47.562;18.920;2023-09-12T12:39:27;11.90;;;4.90;;
75340;SDS011;64931;47.562;18.920;2023-09-12T12:41:52;13.80;;;5.20;;
75340;SDS011;64931;47.562;18.920;2023-09-12T12:44:19;12.90;;;4.60;;
75340;SDS011;64931;47.562;18.920;2023-09-12T12:47:03;17.20;;;5.10;;
75340;SDS011;64931;47.562;18.920;2023-09-12T12:49:35;12.20;;;4.70;;
75340;SDS011;64931;47.562;18.920;2023-09-12T12:52:02;15.20;;;5.60;;
75340;SDS011;64931;47.562;18.920;2023-09-12T12:54:31;21.10;;;5.70;;
75340;SDS011;64931;47.562;18.920;2023-09-12T12:56:58;15.80;;;5.20;;
75340;SDS011;64931;47.562;18.920;2023-09-12T12:59:24;17.60;;;5.20;;
75340;SDS011;64931;47.562;18.920;2023-09-12T13:01:50;17.20;;;5.60;;
75340;SDS011;64931;47.562;18.920;2023-09-12T13:04:15;14.20;;;5.90;;
75340;SDS011;64931;47.562;18.920;2023-09-12T13:06:41;11.70;;;5.00;;
75340;SDS011;64931;47.562;18.920;2023-09-12T13:09:07;13.20;;;5.20;;
75340;SDS011;64931;47.562;18.920;2023-09-12T13:11:34;11.40;;;5.50;;
75340;SDS011;64931;47.562;18.920;2023-09-12T13:14:00;13.50;;;5.60;;
75340;SDS011;64931;47.562;18.920;2023-09-12T13:16:26;18.20;;;6.20;;
75340;SDS011;64931;47.562;18.920;2023-09-12T13:18:51;14.60;;;5.30;;
75340;SDS011;64931;47.562;18.920;2023-09-12T13:21:17;14.80;;;5.00;;
75340;SDS011;64931;47.562;18.920;2023-09-12T13:23:42;9.10;;;4.90;;
75340;SDS011;64931;47.562;18.920;2023-09-12T13:26:08;16.00;;;5.10;;
75340;SDS011;64931;47.562;18.920;2023-09-12T13:28:34;14.60;;;4.70;;
75340;SDS011;64931;47.562;18.920;2023-09-12T13:31:00;14.30;;;5.10;;
75340;SDS011;64931;47.562;18.920;2023-09-12T13:33:25;13.50;;;5.00;;
75340;SDS011;64931;47.562;18.920;2023-09-12T13:35:51;12.00;;;4.50;;
75340;SDS011;64931;47.562;18.920;2023-09-12T13:38:16;14.50;;;5.00;;
75340;SDS011;64931;47.562;18.920;2023-09-12T13:40:44;13.20;;;5.00;;
75340;SDS011;64931;47.562;18.920;2023-09-12T13:43:10;13.40;;;5.30;;
75340;SDS011;64931;47.562;18.920;2023-09-12T13:45:39;13.80;;;4.80;;
75340;SDS011;64931;47.562;18.920;2023-09-12T13:48:05;12.10;;;4.80;;
75340;SDS011;64931;47.562;18.920;2023-09-12T13:50:31;12.00;;;4.50;;
75340;SDS011;64931;47.562;18.920;2023-09-12T13:52:57;12.70;;;4.90;;
75340;SDS011;64931;47.562;18.920;2023-09-12T13:55:29;22.30;;;5.20;;
75340;SDS011;64931;47.562;18.920;2023-09-12T13:57:55;14.80;;;4.90;;
75340;SDS011;64931;47.562;18.920;2023-09-12T14:00:20;14.80;;;4.70;;
75340;SDS011;64931;47.562;18.920;2023-09-12T14:02:46;15.60;;;4.80;;
75340;SDS011;64931;47.562;18.920;2023-09-12T14:05:11;13.60;;;4.80;;
75340;SDS011;64931;47.562;18.920;2023-09-12T14:07:37;13.00;;;4.80;;
75340;SDS011;64931;47.562;18.920;2023-09-12T14:10:04;14.80;;;4.80;;
75340;SDS011;64931;47.562;18.920;2023-09-12T14:12:31;12.60;;;4.90;;
75340;SDS011;64931;47.562;18.920;2023-09-12T14:14:57;16.70;;;4.60;;
75340;SDS011;64931;47.562;18.920;2023-09-12T14:17:22;12.30;;;4.60;;
75340;SDS011;64931;47.562;18.920;2023-09-12T14:19:47;18.70;;;4.80;;
75340;SDS011;64931;47.562;18.920;2023-09-12T14:22:13;14.50;;;4.60;;
75340;SDS011;64931;47.562;18.920;2023-09-12T14:24:38;21.40;;;4.90;;
75340;SDS011;64931;47.562;18.920;2023-09-12T14:27:04;15.90;;;4.50;;
75340;SDS011;64931;47.562;18.920;2023-09-12T14:29:29;15.40;;;4.70;;
75340;SDS011;64931;47.562;18.920;2023-09-12T14:31:55;14.50;;;5.00;;
75340;SDS011;64931;47.562;18.920;2023-09-12T14:34:24;15.80;;;5.00;;
75340;SDS011;64931;47.562;18.920;2023-09-12T14:36:53;12.20;;;4.60;;
75340;SDS011;64931;47.562;18.920;2023-09-12T14:39:20;13.40;;;4.60;;
75340;SDS011;64931;47.562;18.920;2023-09-12T14:41:46;15.90;;;4.80;;
75340;SDS011;64931;47.562;18.920;2023-09-12T14:44:17;14.90;;;4.80;;
75340;SDS011;64931;47.562;18.920;2023-09-12T14:46:45;15.70;;;4.70;;
75340;SDS011;64931;47.562;18.920;2023-09-12T14:49:11;15.00;;;4.80;;
75340;SDS011;64931;47.562;18.920;2023-09-12T14:51:36;15.70;;;4.80;;
75340;SDS011;64931;47.562;18.920;2023-09-12T14:54:05;18.50;;;5.20;;